Cadott, WI (54727)

5:33 PM CST on February 06, 2016 (GMT -0600)
Clear Creek Estates/Sigel Township/Cadott, WI | | Change Station
CLOSE
Current Station
Personal Weather Station
Location: Cadott, WI
Elevation: 1007 ft
Nearby Weather Stations

Elev 1007 ft 44.91 °N, 91.14 °W | Updated 9 minutes ago

Overcast
Overcast
31.8 °F
Feels Like 25 °F
N
7.8
Wind Variable Wind from SW

Today
High -- | Low -- °F
--% Chance of Precip.
Yesterday
High -- | Low -- °F
Precip. -- in
Pressure 29.99 in
Visibility 10.0 miles
Clouds Overcast 10000 ft
Windchill 25 °F
Dew Point 26 °F
Humidity 79%
Rainfall 0.00 in
Snow Depth Not available.
7:18 AM 5:19 PM
Waning Crescent, 4% visible
METAR KEAU 062256Z 18013KT 10SM OVC100 01/M05 A2996 RMK AO2 SLP156 T00061050
Pressure 29.99 in
Visibility 10.0 miles
Clouds Overcast 10000 ft
Windchill 25 °F
Dew Point 26 °F
Humidity 79%
Rainfall 0.00 in
Snow Depth Not available.
7:18 AM 5:19 PM
Waning Crescent, 4% visible
METAR KEAU 062256Z 18013KT 10SM OVC100 01/M05 A2996 RMK AO2 SLP156 T00061050

10-Day Weather Forecast

Almanac

Astronomy

Feb. 06, 2016 Rise Set
Actual Time
Civil Twilight
Nautical Twilight
Astronomical Twilight
Moon
Length of Visible Light
Length of Day
Tomorrow will be .
, % of the Moon is Illuminated

Today's Extremes

State Highs State Lows

Community

WunderPhotos

Upload Photos

1,891,098 photos uploaded!

WunderBlog® & News

Nearby

Air Quality

  Air Quality AQ Index Pollutant
Not available.

Snow Depth

Station Depth Elevation

Earthquake Activity

City Distance Mag. Time & Date
Minimum magnitude displayed is 2.5.

Coastal Water Temperatures

Place Temperature

Stations

Nearby Weather Stations

Station Location Temp. Windchill Dew Point Humidity Wind Precip. Elev Updated Type
                   

Watches & Warnings

There are currently no watches in effect.